Time;durP1;ratioP1;P1;durP2;ratioP2;P2;SDS_P1;SDS_P2;PMS_P1;PMS_P2;Temp;Humidity;BMP_temperature;BMP_pressure;BME280_temperature;BME280_humidity;BME280_pressure;Samples;Min_cycle;Max_cycle;Signal;HPM_P1;HPM_P2
2022/01/18 00:00:44;;;;;;;;;;;5.20;99.90;;;;;;4985128;28;19922;-74
2022/01/18 00:03:10;;;;;;;;;;;5.20;99.90;;;;;;4999794;28;19933;-74
2022/01/18 00:05:38;;;;;;;;;;;5.20;99.90;;;;;;4990266;28;20080;-74
2022/01/18 00:08:04;;;;;;;;;;;5.10;99.90;;;;;;5023258;28;20308;-74
2022/01/18 00:10:33;;;;;;;;;;;5.10;99.90;;;;;;5016857;28;19930;-74
2022/01/18 00:15:39;;;;;;;;;;;5.00;99.90;;;;;;4985231;28;19926;-74
2022/01/18 00:18:12;;;;;;;;;;;5.00;99.90;;;;;;4999242;28;19926;-73
2022/01/18 00:20:59;;;;;;;;;;;5.10;99.90;;;;;;4993955;28;19979;-75
2022/01/18 00:23:46;;;;;;;;;;;5.10;99.90;;;;;;4964304;28;19926;-75
2022/01/18 00:26:13;;;;;;;;;;;5.00;99.90;;;;;;5032766;28;19922;-74
2022/01/18 00:28:41;;;;;;;;;;;5.00;99.90;;;;;;4968068;28;19922;-74
2022/01/18 00:31:31;;;;;;;;;;;5.00;99.90;;;;;;4972708;28;20237;-74
2022/01/18 00:34:03;;;;;;;;;;;5.00;99.90;;;;;;4968879;28;19923;-74
2022/01/18 00:39:15;;;;;;;;;;;4.90;99.90;;;;;;4984106;28;19926;-76
2022/01/18 00:41:41;;;;;;;;;;;4.90;99.90;;;;;;4969601;28;20149;-74
2022/01/18 00:44:09;;;;;;;;;;;4.80;99.90;;;;;;4984824;28;19929;-74
2022/01/18 00:46:37;;;;;;;;;;;4.80;99.90;;;;;;4954636;28;20017;-74
2022/01/18 00:49:04;;;;;;;;;;;4.80;99.90;;;;;;4968470;28;19926;-74
2022/01/18 00:51:38;;;;;;;;;;;4.70;99.90;;;;;;4984877;28;19965;-74
2022/01/18 00:54:07;;;;;;;;;;;4.80;99.90;;;;;;4990071;28;19932;-74
2022/01/18 00:56:38;;;;;;;;;;;4.70;99.90;;;;;;5015115;28;19941;-74
2022/01/18 00:59:05;;;;;;;;;;;4.70;99.90;;;;;;4963227;28;19926;-74
2022/01/18 01:01:37;;;;;;;;;;;4.70;99.90;;;;;;4966107;28;19922;-74
2022/01/18 01:04:04;;;;;;;;;;;4.70;99.90;;;;;;4957155;28;20732;-74
2022/01/18 01:06:31;;;;;;;;;;;4.70;99.90;;;;;;4985219;28;19928;-74
2022/01/18 01:08:58;;;;;;;;;;;4.60;99.90;;;;;;4991036;28;19926;-74
2022/01/18 01:11:25;;;;;;;;;;;4.60;99.90;;;;;;4975429;28;19937;-74
2022/01/18 01:13:53;;;;;;;;;;;4.50;99.90;;;;;;4989814;28;19948;-74
2022/01/18 01:46:19;;;;;;;;;;;4.20;99.90;;;;;;5029389;28;19920;-74
2022/01/18 01:48:52;;;;;;;;;;;4.10;99.90;;;;;;4996716;28;20014;-74
2022/01/18 01:51:20;;;;;;;;;;;4.10;99.90;;;;;;5007394;28;19929;-74
2022/01/18 01:53:47;;;;;;;;;;;4.00;99.90;;;;;;4965314;28;19926;-74
2022/01/18 01:56:14;;;;;;;;;;;4.00;99.90;;;;;;5011460;28;19926;-74
2022/01/18 01:58:40;;;;;;;;;;;4.00;99.90;;;;;;4982004;28;20026;-74
2022/01/18 02:01:07;;;;;;;;;;;4.00;99.90;;;;;;5012544;28;19923;-77
2022/01/18 02:03:34;;;;;;;;;;;4.00;99.90;;;;;;4991952;28;19929;-76
2022/01/18 02:06:01;;;;;;;;;;;4.00;99.90;;;;;;4968407;28;20009;-74
2022/01/18 02:08:28;;;;;;;;;;;3.90;99.90;;;;;;4997209;28;19931;-74
2022/01/18 02:10:55;;;;;;;;;;;3.90;99.90;;;;;;5018884;28;20268;-74
2022/01/18 02:13:21;;;;;;;;;;;3.90;99.90;;;;;;4982477;28;19927;-74
2022/01/18 02:16:12;;;;;;;;;;;4.00;99.90;;;;;;4967313;28;20381;-74
2022/01/18 02:24:10;;;;;;;;;;;3.90;99.90;;;;;;4992376;28;19920;-74
2022/01/18 02:26:36;;;;;;;;;;;3.90;99.90;;;;;;4985248;28;19924;-75
2022/01/18 02:29:04;;;;;;;;;;;3.90;99.90;;;;;;4974771;28;19937;-74
2022/01/18 02:31:31;;;;;;;;;;;3.90;99.90;;;;;;5021427;28;20015;-74
2022/01/18 02:34:17;;;;;;;;;;;3.90;99.90;;;;;;5012773;28;19924;-74
2022/01/18 02:36:45;;;;;;;;;;;3.90;99.90;;;;;;5023665;28;20394;-74
2022/01/18 02:39:14;;;;;;;;;;;3.90;99.90;;;;;;4982082;28;19929;-74
2022/01/18 02:41:41;;;;;;;;;;;3.80;99.90;;;;;;5043207;28;19922;-74
2022/01/18 02:44:09;;;;;;;;;;;3.90;99.90;;;;;;4955408;28;20192;-74
2022/01/18 02:46:36;;;;;;;;;;;3.90;99.90;;;;;;4972600;28;19921;-74
2022/01/18 02:49:03;;;;;;;;;;;3.90;99.90;;;;;;5036243;28;19920;-74
2022/01/18 02:51:30;;;;;;;;;;;3.90;99.90;;;;;;4997021;28;19928;-74
2022/01/18 02:54:00;;;;;;;;;;;3.80;99.90;;;;;;5009370;28;19924;-74
2022/01/18 02:56:32;;;;;;;;;;;3.90;99.90;;;;;;4961289;28;19933;-74
2022/01/18 02:59:10;;;;;;;;;;;3.80;99.90;;;;;;4959571;28;19926;-74
2022/01/18 03:04:22;;;;;;;;;;;3.90;99.90;;;;;;4971611;28;19922;-74
2022/01/18 03:06:49;;;;;;;;;;;3.90;99.90;;;;;;4964863;28;19922;-74
2022/01/18 03:09:16;;;;;;;;;;;3.80;99.90;;;;;;4970937;28;19929;-74
2022/01/18 03:11:42;;;;;;;;;;;3.90;99.90;;;;;;5034984;28;19930;-74
2022/01/18 03:14:09;;;;;;;;;;;3.90;99.90;;;;;;4974085;28;19928;-74
2022/01/18 03:16:36;;;;;;;;;;;3.80;99.90;;;;;;4962639;28;19929;-74
2022/01/18 03:19:03;;;;;;;;;;;3.90;99.90;;;;;;5018909;28;19920;-74
2022/01/18 03:21:30;;;;;;;;;;;4.00;99.90;;;;;;4970297;28;19922;-76
2022/01/18 03:24:11;;;;;;;;;;;4.00;99.90;;;;;;4971150;28;19929;-75
2022/01/18 03:28:04;;;;;;;;;;;3.90;99.90;;;;;;4970113;28;20450;-75
2022/01/18 03:29:26;;;;;;;;;;;3.90;99.90;;;;;;5001794;28;19922;-75
2022/01/18 03:31:53;;;;;;;;;;;3.80;99.90;;;;;;4973133;28;20340;-75
2022/01/18 03:34:19;;;;;;;;;;;3.80;99.90;;;;;;4996836;28;20530;-75
2022/01/18 03:36:46;;;;;;;;;;;3.80;99.90;;;;;;5001924;28;19920;-75
2022/01/18 03:39:13;;;;;;;;;;;3.80;99.90;;;;;;4965805;28;19922;-75
2022/01/18 03:41:40;;;;;;;;;;;3.80;99.90;;;;;;5013763;28;19928;-75
2022/01/18 03:44:07;;;;;;;;;;;3.80;99.90;;;;;;5024805;28;19933;-75
2022/01/18 03:46:36;;;;;;;;;;;3.80;99.90;;;;;;5027925;28;19930;-75
2022/01/18 03:49:04;;;;;;;;;;;3.80;99.90;;;;;;4970754;28;19922;-75
2022/01/18 03:51:31;;;;;;;;;;;3.80;99.90;;;;;;4988128;28;19922;-75
2022/01/18 03:53:58;;;;;;;;;;;3.80;99.90;;;;;;4997478;28;20289;-75
2022/01/18 03:56:25;;;;;;;;;;;3.70;99.90;;;;;;4985489;28;19922;-75
2022/01/18 03:58:51;;;;;;;;;;;3.70;99.90;;;;;;5018689;28;20289;-75
2022/01/18 04:01:18;;;;;;;;;;;3.70;99.90;;;;;;5008211;28;19926;-75
2022/01/18 04:03:50;;;;;;;;;;;3.70;99.90;;;;;;5033264;28;19927;-75
2022/01/18 04:06:17;;;;;;;;;;;3.70;99.90;;;;;;5039995;28;19930;-75
2022/01/18 04:08:44;;;;;;;;;;;3.70;99.90;;;;;;4986078;28;19920;-75
2022/01/18 04:11:10;;;;;;;;;;;3.70;99.90;;;;;;4961379;28;19936;-75
2022/01/18 04:13:37;;;;;;;;;;;3.70;99.90;;;;;;5035185;28;20222;-75
2022/01/18 04:16:04;;;;;;;;;;;3.70;99.90;;;;;;4997395;28;19922;-75
2022/01/18 04:18:47;;;;;;;;;;;3.60;99.90;;;;;;5025289;28;20224;-75
2022/01/18 04:29:11;;;;;;;;;;;3.70;99.90;;;;;;5039898;28;19927;-75
2022/01/18 04:31:38;;;;;;;;;;;3.70;99.90;;;;;;4973681;28;20388;-75
2022/01/18 04:34:04;;;;;;;;;;;3.70;99.90;;;;;;5014754;28;19922;-75
2022/01/18 04:36:31;;;;;;;;;;;3.70;99.90;;;;;;4963601;28;20004;-75
2022/01/18 04:38:58;;;;;;;;;;;3.60;99.90;;;;;;4965388;28;20389;-75
2022/01/18 04:41:28;;;;;;;;;;;3.60;99.90;;;;;;4963592;28;19926;-75
2022/01/18 04:49:14;;;;;;;;;;;3.60;99.90;;;;;;4969868;28;20397;-75
2022/01/18 04:51:42;;;;;;;;;;;3.60;99.90;;;;;;4983735;28;20133;-75
2022/01/18 04:54:11;;;;;;;;;;;3.60;99.90;;;;;;5007371;28;19926;-75
2022/01/18 04:59:07;;;;;;;;;;;3.60;99.90;;;;;;4971918;28;19925;-75
2022/01/18 05:01:35;;;;;;;;;;;3.60;99.90;;;;;;4972300;28;19927;-75
2022/01/18 05:04:02;;;;;;;;;;;3.50;99.90;;;;;;4980244;28;19926;-75
2022/01/18 05:06:28;;;;;;;;;;;3.60;99.90;;;;;;4988115;28;19930;-75
2022/01/18 05:08:56;;;;;;;;;;;3.50;99.90;;;;;;4969494;28;20302;-76
2022/01/18 05:11:25;;;;;;;;;;;3.50;99.90;;;;;;4970773;28;19923;-75
2022/01/18 05:19:12;;;;;;;;;;;3.50;99.90;;;;;;5006576;28;19931;-75
2022/01/18 05:24:21;;;;;;;;;;;3.60;99.90;;;;;;5010248;28;19922;-75
2022/01/18 05:26:48;;;;;;;;;;;3.50;99.90;;;;;;5017844;28;19930;-75
2022/01/18 05:29:15;;;;;;;;;;;3.60;99.90;;;;;;5005976;28;20184;-75
2022/01/18 05:31:42;;;;;;;;;;;3.50;99.90;;;;;;5009485;28;20016;-75
2022/01/18 05:34:09;;;;;;;;;;;3.60;99.90;;;;;;4991748;28;19922;-75
2022/01/18 05:36:36;;;;;;;;;;;3.60;99.90;;;;;;5002850;28;19922;-75
2022/01/18 05:39:03;;;;;;;;;;;3.50;99.90;;;;;;5003000;28;20347;-76
2022/01/18 05:41:30;;;;;;;;;;;3.50;99.90;;;;;;5006697;28;19928;-75
2022/01/18 05:43:57;;;;;;;;;;;3.50;99.90;;;;;;5001441;28;19930;-75
2022/01/18 05:46:24;;;;;;;;;;;3.60;99.90;;;;;;4996546;28;20344;-75
2022/01/18 05:48:51;;;;;;;;;;;3.60;99.90;;;;;;4981231;28;19926;-75
2022/01/18 05:51:18;;;;;;;;;;;3.60;99.90;;;;;;4978980;28;20243;-75
2022/01/18 05:53:45;;;;;;;;;;;3.50;99.90;;;;;;4995833;28;19933;-75
2022/01/18 05:56:13;;;;;;;;;;;3.50;99.90;;;;;;5002752;28;19922;-75
2022/01/18 05:58:44;;;;;;;;;;;3.50;99.90;;;;;;5006954;28;19924;-75
2022/01/18 06:01:14;;;;;;;;;;;3.60;99.90;;;;;;5035969;28;19922;-75
2022/01/18 06:04:05;;;;;;;;;;;3.60;99.90;;;;;;4999274;28;19929;-75
2022/01/18 06:06:51;;;;;;;;;;;3.60;99.90;;;;;;4929469;28;20377;-75
2022/01/18 06:09:19;;;;;;;;;;;3.50;99.90;;;;;;4969953;28;19922;-75
2022/01/18 06:11:45;;;;;;;;;;;3.60;99.90;;;;;;5002299;28;19920;-75
2022/01/18 06:14:12;;;;;;;;;;;3.60;99.90;;;;;;4978006;28;19926;-75
2022/01/18 06:16:39;;;;;;;;;;;3.60;99.90;;;;;;4944849;28;20320;-75
2022/01/18 06:19:05;;;;;;;;;;;3.60;99.90;;;;;;4952925;28;19926;-75
2022/01/18 06:21:32;;;;;;;;;;;3.60;99.90;;;;;;4959466;28;20669;-75
2022/01/18 06:23:59;;;;;;;;;;;3.70;99.90;;;;;;4954373;28;19932;-76
2022/01/18 06:26:25;;;;;;;;;;;3.70;99.90;;;;;;4971920;28;19949;-75
2022/01/18 06:28:53;;;;;;;;;;;3.60;99.90;;;;;;4963719;28;20308;-75
2022/01/18 06:31:19;;;;;;;;;;;3.60;99.90;;;;;;4976415;28;19926;-75
2022/01/18 06:33:46;;;;;;;;;;;3.60;99.90;;;;;;4978634;28;20033;-75
2022/01/18 06:36:14;;;;;;;;;;;3.60;99.90;;;;;;4987370;28;19952;-75
2022/01/18 06:38:41;;;;;;;;;;;3.60;99.90;;;;;;4956802;28;19949;-74
2022/01/18 06:41:08;;;;;;;;;;;3.60;99.90;;;;;;4951097;28;19926;-75
2022/01/18 06:43:35;;;;;;;;;;;3.60;99.90;;;;;;4986433;28;19924;-74
2022/01/18 06:46:02;;;;;;;;;;;3.60;99.90;;;;;;4953574;28;19980;-74
2022/01/18 06:48:28;;;;;;;;;;;3.70;99.90;;;;;;4959071;28;20017;-74
2022/01/18 06:50:55;;;;;;;;;;;3.70;99.90;;;;;;4991217;28;19924;-75
2022/01/18 06:53:22;;;;;;;;;;;3.60;99.90;;;;;;5025249;28;20005;-74
2022/01/18 06:55:52;;;;;;;;;;;3.60;99.90;;;;;;4961929;28;19930;-74
2022/01/18 06:58:20;;;;;;;;;;;3.60;99.90;;;;;;4948964;28;20172;-75
2022/01/18 07:00:47;;;;;;;;;;;3.60;99.90;;;;;;4977716;28;20310;-75
2022/01/18 07:03:15;;;;;;;;;;;3.60;99.90;;;;;;4993475;28;19988;-75
2022/01/18 07:05:42;;;;;;;;;;;3.60;99.90;;;;;;4952324;28;19927;-75
2022/01/18 07:08:13;;;;;;;;;;;3.50;99.90;;;;;;4957225;28;20472;-75
2022/01/18 07:10:40;;;;;;;;;;;3.50;99.90;;;;;;4979926;28;19925;-75
2022/01/18 07:13:08;;;;;;;;;;;3.50;99.90;;;;;;4967606;28;19926;-74
2022/01/18 07:15:35;;;;;;;;;;;3.50;99.90;;;;;;4949112;28;20359;-75
2022/01/18 07:18:02;;;;;;;;;;;3.40;99.90;;;;;;4962120;28;20133;-75
2022/01/18 07:20:29;;;;;;;;;;;3.40;99.90;;;;;;4962771;28;20615;-75
2022/01/18 07:22:56;;;;;;;;;;;3.30;99.90;;;;;;4975556;28;20291;-75
2022/01/18 07:25:25;;;;;;;;;;;3.20;99.90;;;;;;4981863;28;19926;-74
2022/01/18 07:27:52;;;;;;;;;;;3.20;99.90;;;;;;4980505;28;19922;-74
2022/01/18 07:30:19;;;;;;;;;;;3.20;99.90;;;;;;4980963;28;19929;-75
2022/01/18 07:32:45;;;;;;;;;;;3.30;99.90;;;;;;4978957;28;19922;-75
2022/01/18 07:35:12;;;;;;;;;;;3.30;99.90;;;;;;4975998;28;20590;-75
2022/01/18 07:37:39;;;;;;;;;;;3.30;99.90;;;;;;4976278;28;20408;-75
2022/01/18 07:40:07;;;;;;;;;;;3.30;99.90;;;;;;4974324;28;20304;-75
2022/01/18 07:42:33;;;;;;;;;;;3.40;99.90;;;;;;4984668;28;19928;-74
2022/01/18 07:45:00;;;;;;;;;;;3.40;99.90;;;;;;4978831;28;19925;-75
2022/01/18 07:47:27;;;;;;;;;;;3.50;99.90;;;;;;4977774;28;20390;-75
2022/01/18 07:49:53;;;;;;;;;;;3.50;99.90;;;;;;4978082;28;19922;-75
2022/01/18 07:52:20;;;;;;;;;;;3.60;99.90;;;;;;4948712;28;19930;-75
2022/01/18 07:54:46;;;;;;;;;;;3.60;99.90;;;;;;4981170;28;20570;-75
2022/01/18 07:57:15;;;;;;;;;;;3.60;99.90;;;;;;4978408;28;19928;-75
2022/01/18 07:59:42;;;;;;;;;;;3.70;99.90;;;;;;4978506;28;19925;-75
2022/01/18 08:02:09;;;;;;;;;;;3.80;99.90;;;;;;4984328;28;20201;-75
2022/01/18 08:04:36;;;;;;;;;;;3.90;99.90;;;;;;4973896;28;19967;-75
2022/01/18 08:07:03;;;;;;;;;;;4.00;99.90;;;;;;4979400;28;19930;-75
2022/01/18 08:09:29;;;;;;;;;;;4.00;99.90;;;;;;4989007;28;20303;-75
2022/01/18 08:11:56;;;;;;;;;;;4.00;99.90;;;;;;4951372;28;19921;-75
2022/01/18 08:14:26;;;;;;;;;;;4.10;99.90;;;;;;4981605;28;20107;-75
2022/01/18 08:17:01;;;;;;;;;;;4.20;99.90;;;;;;4977408;28;19936;-75
2022/01/18 08:19:29;;;;;;;;;;;4.40;99.90;;;;;;4981105;28;20012;-75
2022/01/18 08:21:57;;;;;;;;;;;4.50;99.90;;;;;;4968970;28;19922;-75
2022/01/18 08:24:24;;;;;;;;;;;4.60;99.90;;;;;;4978898;28;19944;-75
2022/01/18 08:26:51;;;;;;;;;;;4.70;99.90;;;;;;4980234;28;19921;-75
2022/01/18 08:29:18;;;;;;;;;;;4.80;99.90;;;;;;4944733;28;19930;-75
2022/01/18 08:32:06;;;;;;;;;;;4.90;99.90;;;;;;4979936;28;20365;-75
2022/01/18 08:34:33;;;;;;;;;;;5.00;99.90;;;;;;4974047;28;19926;-75
2022/01/18 08:37:00;;;;;;;;;;;5.10;99.90;;;;;;4977856;28;19929;-75
2022/01/18 08:39:26;;;;;;;;;;;5.20;99.90;;;;;;4982874;28;19945;-75
2022/01/18 08:41:53;;;;;;;;;;;5.20;99.90;;;;;;4981283;28;19922;-75
2022/01/18 08:44:19;;;;;;;;;;;5.40;99.90;;;;;;4973989;28;20399;-73
2022/01/18 08:46:46;;;;;;;;;;;5.50;99.90;;;;;;4978128;28;20153;-73
2022/01/18 08:49:13;;;;;;;;;;;5.50;99.90;;;;;;4974402;28;19929;-74
2022/01/18 08:51:40;;;;;;;;;;;5.70;99.90;;;;;;4983906;28;19930;-73
2022/01/18 08:54:07;;;;;;;;;;;5.70;99.90;;;;;;4949189;28;19926;-73
2022/01/18 08:56:33;;;;;;;;;;;5.80;99.90;;;;;;4980879;28;19928;-74
2022/01/18 08:59:20;;;;;;;;;;;5.80;99.90;;;;;;4980959;28;20351;-73
2022/01/18 09:01:47;;;;;;;;;;;5.80;99.90;;;;;;4974711;28;19921;-73
2022/01/18 09:04:13;;;;;;;;;;;5.90;99.90;;;;;;4974567;28;19933;-75
2022/01/18 09:06:41;;;;;;;;;;;6.10;99.90;;;;;;4967542;28;20380;-74
2022/01/18 09:09:09;;;;;;;;;;;6.20;99.90;;;;;;4983345;28;19926;-75
2022/01/18 09:11:36;;;;;;;;;;;6.20;99.90;;;;;;4982291;28;20005;-75
2022/01/18 09:14:03;;;;;;;;;;;6.20;99.90;;;;;;4974556;28;20466;-75
2022/01/18 09:16:30;;;;;;;;;;;5.90;99.90;;;;;;4974818;28;19935;-77
2022/01/18 09:18:56;;;;;;;;;;;5.50;99.90;;;;;;4979939;28;19922;-77
2022/01/18 09:21:25;;;;;;;;;;;5.50;99.90;;;;;;4979814;28;19944;-75
2022/01/18 09:23:51;;;;;;;;;;;5.50;99.90;;;;;;4973255;28;19922;-74
2022/01/18 09:26:18;;;;;;;;;;;5.60;99.90;;;;;;4975384;28;19925;-74
2022/01/18 09:28:45;;;;;;;;;;;5.70;99.90;;;;;;4949439;28;19941;-74
2022/01/18 09:31:11;;;;;;;;;;;6.00;99.90;;;;;;4975142;28;19932;-74
2022/01/18 09:33:38;;;;;;;;;;;6.30;99.90;;;;;;4976374;28;19922;-74
2022/01/18 09:36:05;;;;;;;;;;;6.60;99.90;;;;;;4983103;28;19922;-74
2022/01/18 09:38:31;;;;;;;;;;;7.00;99.90;;;;;;4978607;28;19929;-74
2022/01/18 09:41:00;;;;;;;;;;;7.30;99.90;;;;;;4950140;28;19929;-75
2022/01/18 09:43:28;;;;;;;;;;;7.50;99.90;;;;;;4971712;28;19922;-74
2022/01/18 09:45:56;;;;;;;;;;;7.70;99.90;;;;;;4981590;28;19922;-74
2022/01/18 09:48:23;;;;;;;;;;;7.80;99.90;;;;;;4971278;28;20028;-75
2022/01/18 09:50:50;;;;;;;;;;;7.70;99.90;;;;;;4970024;28;19941;-75
2022/01/18 09:53:17;;;;;;;;;;;7.90;99.90;;;;;;4967347;28;19926;-75
2022/01/18 09:55:43;;;;;;;;;;;8.00;99.90;;;;;;4977297;28;20388;-74
2022/01/18 09:58:11;;;;;;;;;;;8.30;99.90;;;;;;4968719;28;19930;-75
2022/01/18 10:00:39;;;;;;;;;;;8.50;99.90;;;;;;4967757;28;19968;-75
2022/01/18 10:03:24;;;;;;;;;;;8.50;99.90;;;;;;4984290;28;19953;-75
2022/01/18 10:05:51;;;;;;;;;;;8.40;99.90;;;;;;4975256;28;20310;-74
2022/01/18 10:08:18;;;;;;;;;;;8.40;99.90;;;;;;4980489;28;19925;-74
2022/01/18 10:10:49;;;;;;;;;;;8.40;99.90;;;;;;4974208;28;19925;-74
2022/01/18 10:13:15;;;;;;;;;;;8.40;99.90;;;;;;4982986;28;20269;-73
2022/01/18 10:16:00;;;;;;;;;;;8.50;99.90;;;;;;4981894;28;20281;-75
2022/01/18 10:18:39;;;;;;;;;;;8.60;99.90;;;;;;4976334;28;19922;-75
2022/01/18 10:21:09;;;;;;;;;;;8.70;99.90;;;;;;4985567;28;20378;-74
2022/01/18 10:23:36;;;;;;;;;;;8.80;99.90;;;;;;4976404;28;20005;-75
2022/01/18 10:26:16;;;;;;;;;;;8.60;99.90;;;;;;4981100;28;19922;-73
2022/01/18 10:28:43;;;;;;;;;;;8.50;99.90;;;;;;4969739;28;19930;-75
2022/01/18 10:31:33;;;;;;;;;;;8.50;99.90;;;;;;4978531;28;19922;-73
2022/01/18 10:37:04;;;;;;;;;;;8.30;99.90;;;;;;4981530;28;19926;-74
2022/01/18 10:39:36;;;;;;;;;;;8.20;99.90;;;;;;4975933;28;19940;-73
2022/01/18 10:42:13;;;;;;;;;;;8.10;99.90;;;;;;4977150;28;19923;-74
2022/01/18 10:44:39;;;;;;;;;;;8.20;99.90;;;;;;4984419;28;19922;-73
2022/01/18 10:47:06;;;;;;;;;;;8.00;99.90;;;;;;4977981;28;19925;-74
2022/01/18 10:49:40;;;;;;;;;;;8.10;99.90;;;;;;4982859;28;19926;-74
2022/01/18 10:52:14;;;;;;;;;;;8.30;99.90;;;;;;4967925;28;19944;-75
2022/01/18 10:54:46;;;;;;;;;;;8.60;99.90;;;;;;4973448;28;19936;-74
2022/01/18 10:57:24;;;;;;;;;;;8.70;99.90;;;;;;4977943;28;20459;-74
2022/01/18 10:59:58;;;;;;;;;;;8.90;99.90;;;;;;4988542;28;20024;-74
2022/01/18 11:02:25;;;;;;;;;;;9.00;99.90;;;;;;4969803;28;19925;-75
2022/01/18 11:04:55;;;;;;;;;;;9.10;99.90;;;;;;4987736;28;19930;-74
2022/01/18 11:07:23;;;;;;;;;;;9.10;99.90;;;;;;4966936;28;20296;-75
2022/01/18 11:09:51;;;;;;;;;;;9.30;99.90;;;;;;4984083;28;20496;-74
2022/01/18 11:12:20;;;;;;;;;;;9.50;99.90;;;;;;4971631;28;20419;-75
2022/01/18 11:14:51;;;;;;;;;;;9.50;99.90;;;;;;4963751;28;20443;-76
2022/01/18 11:17:26;;;;;;;;;;;9.70;99.90;;;;;;4957117;28;20147;-76
2022/01/18 11:19:57;;;;;;;;;;;9.70;99.90;;;;;;4973499;28;20694;-75
2022/01/18 11:22:25;;;;;;;;;;;9.90;99.90;;;;;;4972431;28;20350;-74
2022/01/18 11:24:56;;;;;;;;;;;9.80;99.90;;;;;;5014238;28;20626;-75
2022/01/18 11:27:23;;;;;;;;;;;9.70;99.90;;;;;;4969944;28;20423;-75
2022/01/18 11:29:50;;;;;;;;;;;9.70;99.90;;;;;;4969512;28;19925;-75
2022/01/18 11:32:17;;;;;;;;;;;9.60;99.90;;;;;;4972905;28;19926;-75
2022/01/18 11:35:03;;;;;;;;;;;9.50;99.90;;;;;;4972028;28;19921;-75
2022/01/18 11:37:45;;;;;;;;;;;9.30;99.90;;;;;;4968205;28;19929;-75
2022/01/18 11:40:13;;;;;;;;;;;9.30;99.90;;;;;;4967304;28;19930;-75
2022/01/18 11:42:40;;;;;;;;;;;9.20;99.90;;;;;;4965555;28;19926;-74
2022/01/18 11:45:27;;;;;;;;;;;9.20;99.90;;;;;;4972604;28;19926;-76
2022/01/18 11:47:58;;;;;;;;;;;9.20;99.90;;;;;;4972330;28;20379;-75
2022/01/18 11:50:29;;;;;;;;;;;9.10;99.90;;;;;;4964999;28;19932;-75
2022/01/18 11:53:15;;;;;;;;;;;9.10;99.90;;;;;;4972299;28;19929;-75
2022/01/18 11:55:44;;;;;;;;;;;9.00;99.90;;;;;;4973998;28;19926;-75
2022/01/18 11:58:12;;;;;;;;;;;9.00;99.90;;;;;;4965410;28;20682;-75
2022/01/18 12:00:56;;;;;;;;;;;8.90;99.90;;;;;;4961468;28;20172;-74
2022/01/18 12:03:26;;;;;;;;;;;8.80;99.90;;;;;;4969484;28;19926;-75
2022/01/18 12:05:58;;;;;;;;;;;8.70;99.90;;;;;;4961422;28;19966;-75
2022/01/18 12:08:30;;;;;;;;;;;8.50;99.90;;;;;;4973448;28;20024;-72
2022/01/18 12:10:57;;;;;;;;;;;8.40;99.90;;;;;;4966381;28;20235;-73
2022/01/18 12:13:30;;;;;;;;;;;8.30;99.90;;;;;;4966156;28;20012;-73
2022/01/18 12:15:57;;;;;;;;;;;8.30;99.90;;;;;;4959457;28;19933;-73
2022/01/18 12:18:25;;;;;;;;;;;8.30;99.90;;;;;;4964772;28;19929;-73
2022/01/18 12:20:53;;;;;;;;;;;8.20;99.90;;;;;;4962484;28;19929;-73
2022/01/18 12:23:21;;;;;;;;;;;8.20;99.90;;;;;;4972697;28;19984;-73
2022/01/18 12:26:03;;;;;;;;;;;8.30;99.90;;;;;;5001662;28;20316;-73
2022/01/18 12:28:32;;;;;;;;;;;8.20;99.90;;;;;;4962578;28;19941;-74
2022/01/18 12:31:16;;;;;;;;;;;8.10;99.90;;;;;;4979740;28;19925;-73
2022/01/18 12:33:44;;;;;;;;;;;8.10;99.90;;;;;;4971680;28;20044;-73
2022/01/18 12:36:29;;;;;;;;;;;8.00;99.90;;;;;;4978968;28;19925;-73
2022/01/18 12:38:57;;;;;;;;;;;7.90;99.90;;;;;;4985091;28;19983;-74
2022/01/18 12:41:39;;;;;;;;;;;7.70;99.90;;;;;;4976151;28;19933;-74
2022/01/18 12:44:21;;;;;;;;;;;7.70;99.90;;;;;;4979576;28;19928;-74
2022/01/18 12:46:55;;;;;;;;;;;7.60;99.90;;;;;;4969936;28;19944;-74
2022/01/18 12:49:22;;;;;;;;;;;7.60;99.90;;;;;;4977950;28;19936;-75
2022/01/18 12:52:08;;;;;;;;;;;7.50;99.90;;;;;;4979634;28;19933;-74
2022/01/18 12:54:39;;;;;;;;;;;7.40;99.90;;;;;;4976815;28;19929;-73
2022/01/18 12:57:12;;;;;;;;;;;7.30;99.90;;;;;;4976734;28;20287;-75
2022/01/18 12:59:57;;;;;;;;;;;7.10;99.90;;;;;;4949702;28;19991;-73
2022/01/18 13:02:24;;;;;;;;;;;7.10;99.90;;;;;;4975679;28;20020;-74
2022/01/18 13:04:58;;;;;;;;;;;7.10;99.90;;;;;;4981244;28;20437;-75
2022/01/18 13:07:26;;;;;;;;;;;7.00;99.90;;;;;;4972606;28;19944;-74
2022/01/18 13:09:55;;;;;;;;;;;7.00;99.90;;;;;;4981312;28;19945;-74
2022/01/18 13:12:29;;;;;;;;;;;7.00;99.90;;;;;;4986375;28;19927;-74
2022/01/18 13:14:58;;;;;;;;;;;7.00;99.90;;;;;;4981899;28;19973;-74
2022/01/18 13:23:24;;;;;;;;;;;7.10;99.90;;;;;;4974153;28;19926;-73
2022/01/18 13:25:56;;;;;;;;;;;7.10;99.90;;;;;;4984536;28;19926;-73
2022/01/18 13:28:32;;;;;;;;;;;7.20;99.90;;;;;;4982027;28;20272;-74
2022/01/18 13:31:27;;;;;;;;;;;7.20;99.90;;;;;;4976198;28;19978;-74
2022/01/18 13:33:56;;;;;;;;;;;7.20;99.90;;;;;;4981314;28;19929;-75
2022/01/18 13:36:28;;;;;;;;;;;7.40;99.90;;;;;;4983353;28;20304;-75
2022/01/18 13:38:55;;;;;;;;;;;7.50;99.90;;;;;;4983333;28;19921;-74
2022/01/18 13:41:24;;;;;;;;;;;7.50;99.90;;;;;;4981072;28;20307;-75
2022/01/18 13:43:51;;;;;;;;;;;7.60;99.90;;;;;;4978049;28;19933;-74
2022/01/18 13:46:25;;;;;;;;;;;7.60;99.90;;;;;;4977332;28;19921;-74
2022/01/18 13:49:09;;;;;;;;;;;7.60;99.90;;;;;;4970621;28;20447;-75
2022/01/18 13:51:36;;;;;;;;;;;7.70;99.90;;;;;;4980633;28;19928;-74
2022/01/18 13:54:05;;;;;;;;;;;7.70;99.90;;;;;;4945800;28;19929;-73
2022/01/18 13:56:32;;;;;;;;;;;7.70;99.90;;;;;;4978444;28;19929;-74
2022/01/18 13:59:01;;;;;;;;;;;7.70;99.90;;;;;;4982081;28;20296;-74
2022/01/18 14:01:32;;;;;;;;;;;7.80;99.90;;;;;;4982971;28;19922;-75
2022/01/18 14:04:00;;;;;;;;;;;7.80;99.90;;;;;;4986428;28;19921;-74
2022/01/18 14:06:34;;;;;;;;;;;7.70;99.90;;;;;;4981545;28;19929;-73
2022/01/18 14:09:01;;;;;;;;;;;7.60;99.90;;;;;;4971168;28;19926;-74
2022/01/18 14:11:31;;;;;;;;;;;7.60;99.90;;;;;;4946405;28;19929;-74
2022/01/18 14:13:57;;;;;;;;;;;7.60;99.90;;;;;;4985044;28;19928;-74
2022/01/18 14:16:28;;;;;;;;;;;7.40;99.90;;;;;;4981310;28;19981;-74
2022/01/18 14:18:55;;;;;;;;;;;7.40;99.90;;;;;;4973632;28;20293;-73
2022/01/18 14:21:33;;;;;;;;;;;7.40;99.90;;;;;;4973133;28;20364;-74
2022/01/18 14:24:13;;;;;;;;;;;7.40;99.90;;;;;;4970083;28;19926;-74
2022/01/18 14:26:52;;;;;;;;;;;7.30;99.90;;;;;;4979298;28;20459;-74
2022/01/18 14:29:20;;;;;;;;;;;7.30;99.90;;;;;;4978007;28;20281;-72
2022/01/18 14:31:56;;;;;;;;;;;7.20;99.90;;;;;;4970868;28;19932;-72
2022/01/18 14:34:26;;;;;;;;;;;7.20;99.90;;;;;;4950944;28;20431;-73
2022/01/18 14:36:55;;;;;;;;;;;7.20;99.90;;;;;;4978846;28;19940;-75
2022/01/18 14:39:21;;;;;;;;;;;7.20;99.90;;;;;;4971155;28;19973;-74
2022/01/18 14:41:55;;;;;;;;;;;7.20;99.90;;;;;;4980214;28;19926;-74
2022/01/18 14:44:35;;;;;;;;;;;7.20;99.90;;;;;;4980683;28;20009;-74
2022/01/18 14:49:48;;;;;;;;;;;7.10;99.90;;;;;;4968203;28;19926;-74
2022/01/18 14:52:15;;;;;;;;;;;7.00;99.90;;;;;;4978570;28;19936;-74
2022/01/18 14:54:42;;;;;;;;;;;6.90;99.90;;;;;;4973000;28;19922;-73
2022/01/18 14:57:10;;;;;;;;;;;6.80;99.90;;;;;;4981261;28;19933;-74
2022/01/18 14:59:37;;;;;;;;;;;6.80;99.90;;;;;;4946818;28;19926;-74
2022/01/18 15:02:03;;;;;;;;;;;6.90;99.90;;;;;;4980812;28;20312;-75
2022/01/18 15:04:30;;;;;;;;;;;6.80;99.90;;;;;;4979785;28;19976;-73
2022/01/18 15:06:57;;;;;;;;;;;6.80;99.90;;;;;;4976200;28;20360;-74
2022/01/18 15:09:29;;;;;;;;;;;6.80;99.90;;;;;;4983535;28;20024;-73
2022/01/18 15:11:56;;;;;;;;;;;6.70;99.90;;;;;;4981692;28;19922;-74
2022/01/18 15:14:23;;;;;;;;;;;6.70;99.90;;;;;;4970897;28;20002;-73
2022/01/18 15:16:50;;;;;;;;;;;6.70;99.90;;;;;;4973151;28;20170;-73
2022/01/18 15:19:16;;;;;;;;;;;6.70;99.90;;;;;;4973133;28;19930;-74
2022/01/18 15:21:43;;;;;;;;;;;6.60;99.90;;;;;;4972471;28;20012;-74
2022/01/18 15:24:10;;;;;;;;;;;6.60;99.90;;;;;;4975218;28;20200;-74
2022/01/18 15:26:36;;;;;;;;;;;6.60;99.90;;;;;;4981428;28;20557;-74
2022/01/18 15:29:03;;;;;;;;;;;6.50;99.90;;;;;;4975310;28;19925;-75
2022/01/18 15:31:30;;;;;;;;;;;6.50;99.90;;;;;;4979950;28;19948;-74
2022/01/18 15:33:56;;;;;;;;;;;6.40;99.90;;;;;;4976901;28;19926;-74
2022/01/18 15:36:24;;;;;;;;;;;6.40;99.90;;;;;;4979170;28;20009;-74
2022/01/18 15:38:52;;;;;;;;;;;6.30;99.90;;;;;;4982430;28;19926;-72
2022/01/18 15:41:19;;;;;;;;;;;6.30;99.90;;;;;;4973191;28;20394;-75
2022/01/18 15:43:46;;;;;;;;;;;6.30;99.90;;;;;;4971643;28;19922;-75
2022/01/18 15:46:14;;;;;;;;;;;6.20;99.90;;;;;;4976766;28;20149;-73
2022/01/18 15:48:43;;;;;;;;;;;6.10;99.90;;;;;;4945766;28;19930;-74
2022/01/18 15:51:10;;;;;;;;;;;6.10;99.90;;;;;;4974364;28;20325;-73
2022/01/18 15:53:36;;;;;;;;;;;6.00;99.90;;;;;;4974980;28;19952;-73
2022/01/18 15:56:03;;;;;;;;;;;6.00;99.90;;;;;;4965392;28;19925;-73
2022/01/18 15:58:30;;;;;;;;;;;6.00;99.90;;;;;;4953782;28;20442;-73
2022/01/18 16:00:56;;;;;;;;;;;5.90;99.90;;;;;;4962811;28;20653;-73
2022/01/18 16:03:23;;;;;;;;;;;5.90;99.90;;;;;;4980925;28;19923;-73